createdAt,value
2023-05-16T00:00:44.139Z,76.01
2023-05-16T00:03:26.689Z,76.12
2023-05-16T00:05:58.394Z,76.03
2023-05-16T00:08:28.854Z,75.96
2023-05-16T00:10:58.901Z,75.89
2023-05-16T00:13:31.111Z,75.79
2023-05-16T00:16:02.987Z,75.91
2023-05-16T00:18:32.905Z,75.86
2023-05-16T00:21:02.933Z,75.67
2023-05-16T00:23:33.821Z,75.74
2023-05-16T00:26:04.584Z,75.74
2023-05-16T00:28:34.246Z,75.70
2023-05-16T00:31:06.838Z,75.61
2023-05-16T00:33:36.904Z,75.40
2023-05-16T00:36:07.132Z,75.22
2023-05-16T00:38:37.860Z,75.19
2023-05-16T00:41:11.146Z,75.13
2023-05-16T00:43:41.075Z,75.13
2023-05-16T00:46:11.193Z,75.22
2023-05-16T00:48:42.595Z,75.26
2023-05-16T00:51:14.901Z,75.22
2023-05-16T00:53:45.133Z,75.17
2023-05-16T00:56:21.809Z,75.09
2023-05-16T00:58:52.236Z,75.11
2023-05-16T01:01:25.407Z,75.12
2023-05-16T01:03:58.882Z,75.07
2023-05-16T01:06:34.670Z,75.07
2023-05-16T01:09:08.760Z,75.14
2023-05-16T01:11:59.692Z,75.02
2023-05-16T01:15:11.279Z,74.95
2023-05-16T01:18:14.846Z,75.09
2023-05-16T01:20:57.051Z,75.01
2023-05-16T01:23:53.947Z,74.85
2023-05-16T01:26:28.569Z,74.90
2023-05-16T01:29:01.586Z,75.14
2023-05-16T01:31:34.373Z,75.12
2023-05-16T01:34:04.210Z,74.87
2023-05-16T01:36:44.662Z,74.78
2023-05-16T01:39:29.334Z,74.88
2023-05-16T01:42:09.324Z,74.80
2023-05-16T01:44:59.641Z,74.75
2023-05-16T01:47:33.453Z,74.79
2023-05-16T01:50:18.167Z,74.74
2023-05-16T01:52:57.385Z,74.64
2023-05-16T01:55:43.770Z,74.66
2023-05-16T01:58:15.640Z,74.64
2023-05-16T02:00:47.219Z,74.41
2023-05-16T02:03:16.619Z,74.69
2023-05-16T02:05:48.903Z,74.43
2023-05-16T02:08:18.866Z,74.34
2023-05-16T02:10:49.487Z,74.23
2023-05-16T02:13:19.617Z,74.19
2023-05-16T02:15:49.621Z,74.13
2023-05-16T02:18:19.802Z,73.80
2023-05-16T02:20:52.709Z,73.73
2023-05-16T02:23:25.107Z,73.59
2023-05-16T02:25:56.397Z,73.62
2023-05-16T02:28:26.291Z,73.54
2023-05-16T02:31:00.928Z,73.42
2023-05-16T02:33:30.893Z,73.47
2023-05-16T02:36:04.613Z,73.28
2023-05-16T02:38:34.688Z,73.36
2023-05-16T02:41:05.235Z,73.30
2023-05-16T02:43:35.368Z,73.14
2023-05-16T02:46:09.915Z,73.07
2023-05-16T02:48:39.387Z,73.25
2023-05-16T02:51:08.817Z,73.12
2023-05-16T02:53:38.524Z,73.23
2023-05-16T02:56:09.240Z,73.27
2023-05-16T02:58:40.093Z,73.29
2023-05-16T03:01:11.354Z,73.38
2023-05-16T03:03:43.901Z,73.61
2023-05-16T03:06:14.049Z,73.60
2023-05-16T03:08:44.378Z,73.74
2023-05-16T03:11:15.705Z,73.84
2023-05-16T03:13:46.699Z,73.57
2023-05-16T03:16:17.461Z,73.69
2023-05-16T03:18:49.439Z,73.67
2023-05-16T03:21:19.447Z,73.76
2023-05-16T03:23:50.078Z,73.80
2023-05-16T03:26:22.777Z,73.80
2023-05-16T03:28:54.682Z,73.86
2023-05-16T03:31:28.783Z,73.65
2023-05-16T03:34:02.253Z,73.63
2023-05-16T03:36:34.658Z,73.75
2023-05-16T03:39:05.032Z,73.84
2023-05-16T03:41:36.669Z,73.85
2023-05-16T03:44:09.064Z,73.81
2023-05-16T03:46:39.128Z,73.84
2023-05-16T03:49:09.372Z,73.87
2023-05-16T03:51:39.774Z,73.86
2023-05-16T03:54:09.986Z,73.95
2023-05-16T03:56:39.496Z,73.92
2023-05-16T03:59:09.509Z,73.86
2023-05-16T04:01:45.019Z,73.66
2023-05-16T04:04:19.480Z,73.65
2023-05-16T04:07:16.280Z,73.58
2023-05-16T04:09:45.059Z,73.45
2023-05-16T04:12:15.564Z,73.29
2023-05-16T04:14:53.594Z,73.42
2023-05-16T04:17:23.703Z,73.19
2023-05-16T04:19:56.748Z,72.82
2023-05-16T04:22:30.077Z,72.53
2023-05-16T04:25:03.351Z,72.25
2023-05-16T04:27:32.843Z,72.43
2023-05-16T04:30:08.011Z,72.50
2023-05-16T04:32:37.970Z,72.39
2023-05-16T04:35:16.860Z,72.22
2023-05-16T04:37:54.195Z,72.26
2023-05-16T04:40:25.728Z,71.85
2023-05-16T04:42:55.539Z,70.67
2023-05-16T04:45:25.349Z,69.63
2023-05-16T04:47:56.095Z,68.93
2023-05-16T04:50:26.084Z,67.20
2023-05-16T04:52:56.710Z,65.90
2023-05-16T04:55:40.987Z,64.71
2023-05-16T04:58:24.741Z,64.58
2023-05-16T05:01:03.466Z,64.21
2023-05-16T05:03:38.182Z,63.05
2023-05-16T05:06:08.423Z,62.26
2023-05-16T05:08:38.154Z,60.74
2023-05-16T05:11:07.740Z,59.73
2023-05-16T05:13:39.032Z,59.33
2023-05-16T05:16:13.360Z,59.15
2023-05-16T05:18:49.766Z,59.41
2023-05-16T05:21:28.665Z,59.66
2023-05-16T05:24:05.207Z,59.87
2023-05-16T05:26:37.682Z,60.32
2023-05-16T05:29:10.676Z,60.96
2023-05-16T05:32:02.663Z,61.47
2023-05-16T05:34:40.483Z,63.08
2023-05-16T05:37:30.891Z,63.47
2023-05-16T05:40:34.445Z,63.55
2023-05-16T05:43:10.411Z,63.75
2023-05-16T05:45:48.707Z,63.89
2023-05-16T05:48:18.759Z,63.90
2023-05-16T05:50:48.886Z,64.12
2023-05-16T05:53:50.363Z,64.42
2023-05-16T05:56:29.375Z,64.44
2023-05-16T05:59:10.653Z,63.75
2023-05-16T06:01:42.751Z,63.10
2023-05-16T06:04:25.132Z,62.65
2023-05-16T06:07:13.591Z,62.58
2023-05-16T06:10:07.484Z,63.31
2023-05-16T06:13:01.470Z,63.76
2023-05-16T06:15:50.679Z,63.01
2023-05-16T06:18:38.592Z,61.79
2023-05-16T06:21:20.108Z,60.96
2023-05-16T06:24:21.283Z,59.23
2023-05-16T06:27:19.551Z,59.11
2023-05-16T06:30:07.257Z,58.52
2023-05-16T06:32:43.451Z,59.11
2023-05-16T06:35:18.523Z,60.28
2023-05-16T06:37:49.283Z,59.50
2023-05-16T06:40:22.398Z,58.33
2023-05-16T06:43:04.192Z,57.16
2023-05-16T06:45:37.238Z,56.92
2023-05-16T06:48:11.963Z,56.53
2023-05-16T06:50:45.156Z,55.61
2023-05-16T06:53:24.913Z,55.11
2023-05-16T06:55:59.458Z,54.80
2023-05-16T06:58:31.462Z,54.54
2023-05-16T07:01:03.601Z,54.36
2023-05-16T07:03:42.710Z,51.99
2023-05-16T07:06:16.362Z,50.58
2023-05-16T07:08:48.803Z,50.72
2023-05-16T07:11:29.536Z,50.57
2023-05-16T07:14:02.761Z,50.76
2023-05-16T07:16:44.726Z,49.88
2023-05-16T07:19:24.025Z,49.09
2023-05-16T07:22:00.104Z,48.74
2023-05-16T07:24:40.068Z,48.35
2023-05-16T07:27:12.416Z,48.57
2023-05-16T07:29:46.055Z,48.58
2023-05-16T07:32:17.168Z,47.66
2023-05-16T07:34:51.366Z,47.34
2023-05-16T07:37:31.346Z,47.19
2023-05-16T07:40:18.908Z,46.01
2023-05-16T07:42:55.777Z,46.52
2023-05-16T07:45:44.622Z,45.74
2023-05-16T07:49:04.573Z,45.70
2023-05-16T07:51:29.177Z,47.14
2023-05-16T07:54:05.732Z,47.28
2023-05-16T07:56:45.429Z,46.33
2023-05-16T07:59:26.832Z,46.14
2023-05-16T08:02:34.521Z,45.10
2023-05-16T08:05:18.051Z,45.11
2023-05-16T08:08:16.491Z,44.39
2023-05-16T08:11:08.365Z,43.04
2023-05-16T08:13:53.154Z,42.37
2023-05-16T08:16:49.545Z,42.65
2023-05-16T08:19:30.227Z,42.32
2023-05-16T08:22:40.402Z,41.28
2023-05-16T08:25:46.178Z,41.39
2023-05-16T08:28:36.703Z,41.69
2023-05-16T08:32:01.226Z,41.61
2023-05-16T08:36:35.601Z,41.32
2023-05-16T08:40:07.551Z,41.53
2023-05-16T08:43:37.369Z,41.78
2023-05-16T08:46:32.408Z,42.10
2023-05-16T09:15:54.861Z,41.94
2023-05-16T09:19:05.298Z,41.74
2023-05-16T09:22:18.869Z,41.62
2023-05-16T09:25:32.029Z,42.51
2023-05-16T09:28:29.561Z,42.12
2023-05-16T09:31:31.210Z,41.65
2023-05-16T09:34:13.869Z,41.78
2023-05-16T09:36:44.191Z,42.22
2023-05-16T09:39:17.533Z,42.26
2023-05-16T09:41:52.942Z,41.25
2023-05-16T09:44:23.065Z,40.80
2023-05-16T09:47:07.544Z,41.48
2023-05-16T09:49:48.531Z,41.11
2023-05-16T09:52:26.379Z,40.94
2023-05-16T09:55:16.331Z,42.03
2023-05-16T09:58:11.295Z,41.58
2023-05-16T10:01:02.903Z,41.03
2023-05-16T10:03:38.562Z,41.20
2023-05-16T10:06:18.722Z,41.68
2023-05-16T10:08:54.234Z,42.37
2023-05-16T10:11:24.900Z,42.11
2023-05-16T10:14:01.274Z,41.67
2023-05-16T10:16:36.037Z,40.82
2023-05-16T10:19:11.623Z,41.37
2023-05-16T10:21:55.595Z,42.09
2023-05-16T10:25:09.767Z,42.39
2023-05-16T10:27:55.461Z,41.78
2023-05-16T10:30:37.884Z,41.17
2023-05-16T10:33:20.940Z,40.21
2023-05-16T10:35:55.767Z,40.27
2023-05-16T10:38:29.577Z,40.82
2023-05-16T10:41:07.401Z,41.33
2023-05-16T10:43:41.445Z,42.01
2023-05-16T10:46:15.191Z,41.90
2023-05-16T10:48:50.032Z,42.20
2023-05-16T10:51:37.033Z,42.26
2023-05-16T10:55:04.405Z,42.62
2023-05-16T10:57:54.025Z,42.80
2023-05-16T11:00:24.266Z,43.04
2023-05-16T11:03:26.721Z,42.69
2023-05-16T11:06:23.603Z,42.77
2023-05-16T11:09:29.082Z,42.97
2023-05-16T11:12:05.733Z,43.19
2023-05-16T11:14:48.025Z,43.43
2023-05-16T11:17:39.976Z,43.03
2023-05-16T11:20:34.692Z,43.39
2023-05-16T11:23:26.982Z,43.64
2023-05-16T11:26:11.195Z,43.79
2023-05-16T11:28:49.522Z,43.67
2023-05-16T11:31:58.675Z,43.41
2023-05-16T11:34:45.814Z,43.18
2023-05-16T11:38:01.279Z,43.67
2023-05-16T11:40:46.366Z,43.81
2023-05-16T11:43:33.876Z,43.40
2023-05-16T11:46:17.794Z,42.99
2023-05-16T11:48:57.593Z,43.02
2023-05-16T11:51:35.675Z,43.03
2023-05-16T11:54:10.035Z,43.11
2023-05-16T11:56:43.126Z,43.28
2023-05-16T11:59:23.641Z,43.17
2023-05-16T12:02:06.402Z,42.78
2023-05-16T12:04:48.193Z,43.22
2023-05-16T12:07:23.548Z,43.32
2023-05-16T12:10:08.994Z,43.10
2023-05-16T12:12:59.184Z,42.50
2023-05-16T12:15:42.104Z,42.30
2023-05-16T12:18:43.363Z,41.94
2023-05-16T12:21:24.803Z,41.77
2023-05-16T12:24:18.461Z,41.68
2023-05-16T12:27:12.550Z,42.01
2023-05-16T12:29:51.453Z,41.90
2023-05-16T12:36:00.169Z,41.82
2023-05-16T12:39:00.194Z,41.84
2023-05-16T12:42:41.478Z,42.04
2023-05-16T12:45:35.533Z,42.15
2023-05-16T12:48:15.254Z,42.05
2023-05-16T12:50:51.584Z,41.95
2023-05-16T12:56:54.546Z,41.61
2023-05-16T12:59:34.889Z,41.50
2023-05-16T13:02:17.890Z,41.39
2023-05-16T13:05:06.223Z,41.49
2023-05-16T13:07:42.280Z,41.72
2023-05-16T13:10:22.360Z,41.90
2023-05-16T13:13:01.184Z,41.99
2023-05-16T13:15:59.316Z,42.35
2023-05-16T13:19:36.563Z,42.42
2023-05-16T13:22:20.700Z,42.43
2023-05-16T13:25:15.613Z,42.41
2023-05-16T13:28:12.232Z,42.48
2023-05-16T13:34:32.342Z,42.34
2023-05-16T13:37:13.479Z,42.71
2023-05-16T13:40:01.108Z,42.79
2023-05-16T13:42:40.715Z,43.06
2023-05-16T13:45:26.639Z,42.88
2023-05-16T13:48:16.852Z,42.85
2023-05-16T13:50:52.276Z,43.16
2023-05-16T13:53:26.034Z,43.19
2023-05-16T13:56:05.865Z,43.70
2023-05-16T13:59:02.027Z,43.72
2023-05-16T14:01:38.090Z,43.80
2023-05-16T14:04:15.652Z,44.02
2023-05-16T14:06:58.549Z,44.24
2023-05-16T14:09:39.484Z,44.14
2023-05-16T14:12:11.497Z,43.97
2023-05-16T14:15:02.588Z,44.16
2023-05-16T14:17:52.301Z,44.28
2023-05-16T14:20:28.045Z,44.33
2023-05-16T14:23:09.346Z,44.11
2023-05-16T14:25:59.220Z,43.87
2023-05-16T14:28:49.429Z,43.92
2023-05-16T14:31:21.658Z,43.87
2023-05-16T14:33:52.711Z,43.87
2023-05-16T14:36:36.956Z,44.05
2023-05-16T14:39:08.744Z,44.13
2023-05-16T14:41:45.503Z,43.95
2023-05-16T14:44:22.473Z,44.16
2023-05-16T14:47:09.637Z,44.41
2023-05-16T14:49:43.172Z,44.38
2023-05-16T14:52:38.573Z,44.57
2023-05-16T14:55:16.293Z,45.00
2023-05-16T14:58:41.211Z,45.52
2023-05-16T15:01:20.308Z,45.89
2023-05-16T15:04:08.877Z,46.53
2023-05-16T15:06:43.048Z,47.21
2023-05-16T15:09:23.564Z,47.89
2023-05-16T15:11:55.949Z,48.42
2023-05-16T15:14:29.114Z,49.03
2023-05-16T15:17:01.717Z,49.45
2023-05-16T15:19:40.612Z,49.65
2023-05-16T15:22:24.656Z,50.08
2023-05-16T15:25:12.522Z,50.33
2023-05-16T15:27:52.582Z,50.70
2023-05-16T15:30:29.583Z,50.88
2023-05-16T15:32:59.101Z,50.87
2023-05-16T15:35:30.576Z,50.86
2023-05-16T15:38:12.363Z,50.90
2023-05-16T15:41:06.080Z,51.09
2023-05-16T15:44:35.522Z,51.31
2023-05-16T15:47:40.455Z,51.53
2023-05-16T15:50:20.610Z,52.06
2023-05-16T15:52:58.653Z,52.72
2023-05-16T15:55:39.154Z,53.23
2023-05-16T15:58:25.910Z,53.45
2023-05-16T16:01:23.943Z,53.81
2023-05-16T16:04:26.035Z,53.96
2023-05-16T16:09:16.277Z,54.27
2023-05-16T16:11:18.366Z,54.88
2023-05-16T16:14:10.299Z,54.99
2023-05-16T16:17:17.227Z,55.40
2023-05-16T16:24:35.743Z,55.94
2023-05-16T16:30:41.865Z,56.09
2023-05-16T16:33:53.644Z,56.10
2023-05-16T16:36:24.491Z,56.12
2023-05-16T16:50:31.542Z,56.46
2023-05-16T16:53:16.697Z,56.46
2023-05-16T16:56:02.734Z,56.58
2023-05-16T16:59:11.382Z,56.91
2023-05-16T17:01:51.051Z,57.16
2023-05-16T17:05:49.769Z,57.24
2023-05-16T17:08:25.242Z,57.68
2023-05-16T17:11:01.162Z,58.04
2023-05-16T17:13:42.266Z,58.37
2023-05-16T17:16:29.905Z,58.42
2023-05-16T17:19:00.512Z,58.56
2023-05-16T17:21:56.483Z,59.05
2023-05-16T17:24:33.252Z,59.39
2023-05-16T17:27:27.452Z,59.88
2023-05-16T17:30:14.906Z,60.30
2023-05-16T17:32:50.175Z,60.79
2023-05-16T17:35:25.309Z,60.72
2023-05-16T17:38:03.943Z,60.78
2023-05-16T17:40:52.895Z,60.99
2023-05-16T17:43:29.322Z,61.37
2023-05-16T17:46:08.878Z,61.81
2023-05-16T17:48:49.977Z,62.10
2023-05-16T17:51:23.272Z,62.34
2023-05-16T17:54:08.024Z,62.62
2023-05-16T17:56:48.734Z,62.77
2023-05-16T17:59:20.120Z,63.10
2023-05-16T18:01:50.219Z,63.22
2023-05-16T18:04:24.456Z,63.24
2023-05-16T18:07:05.870Z,63.40
2023-05-16T18:09:43.922Z,63.67
2023-05-16T18:12:14.840Z,63.89
2023-05-16T18:14:45.768Z,64.01
2023-05-16T18:17:16.607Z,64.12
2023-05-16T18:19:47.675Z,64.26
2023-05-16T18:22:27.469Z,64.44
2023-05-16T18:25:41.554Z,64.58
2023-05-16T18:28:33.492Z,64.95
2023-05-16T18:31:06.837Z,65.06
2023-05-16T18:33:37.372Z,65.11
2023-05-16T18:36:11.027Z,65.16
2023-05-16T18:38:51.866Z,65.32
2023-05-16T18:41:30.818Z,65.29
2023-05-16T18:44:13.977Z,65.29
2023-05-16T18:46:51.673Z,65.28
2023-05-16T18:49:29.801Z,65.34
2023-05-16T18:52:07.870Z,65.47
2023-05-16T18:54:40.290Z,65.80
2023-05-16T18:58:31.633Z,65.95
2023-05-16T19:03:10.053Z,66.21
2023-05-16T19:06:03.397Z,66.52
2023-05-16T19:09:15.145Z,66.70
2023-05-16T19:12:51.948Z,66.91
2023-05-16T19:15:40.510Z,67.10
2023-05-16T19:18:13.364Z,66.89
2023-05-16T19:24:07.001Z,67.22
2023-05-16T19:27:44.186Z,67.25
2023-05-16T19:30:22.711Z,67.82
2023-05-16T19:32:55.939Z,68.12
2023-05-16T19:35:32.128Z,68.44
2023-05-16T19:38:05.931Z,68.54
2023-05-16T19:40:47.207Z,68.63
2023-05-16T19:43:41.238Z,68.73
2023-05-16T19:46:14.906Z,68.71
2023-05-16T19:48:46.595Z,68.84
2023-05-16T19:51:33.186Z,69.21
2023-05-16T19:54:45.687Z,69.47
2023-05-16T20:01:50.516Z,69.80
2023-05-16T20:05:30.365Z,69.62
2023-05-16T20:16:28.901Z,70.29
2023-05-16T20:19:01.130Z,70.32
2023-05-16T20:22:12.631Z,70.30
2023-05-16T20:25:12.164Z,70.31
2023-05-16T20:27:51.747Z,70.28
2023-05-16T20:30:48.823Z,70.30
2023-05-16T20:33:21.499Z,70.39
2023-05-16T20:35:52.416Z,70.24
2023-05-16T20:38:28.268Z,70.12
2023-05-16T20:41:02.144Z,70.43
2023-05-16T20:43:35.744Z,70.29
2023-05-16T20:46:06.453Z,70.41
2023-05-16T20:48:39.855Z,70.43
2023-05-16T20:51:13.950Z,70.33
2023-05-16T20:53:52.794Z,70.25
2023-05-16T20:56:33.709Z,70.38
2023-05-16T20:59:14.293Z,70.44
2023-05-16T21:01:48.171Z,70.32
2023-05-16T21:04:26.894Z,70.48
2023-05-16T21:07:10.856Z,70.63
2023-05-16T21:10:11.007Z,70.58
2023-05-16T21:12:55.266Z,70.63
2023-05-16T21:15:42.562Z,70.76
2023-05-16T21:18:27.607Z,70.81
2023-05-16T21:21:00.661Z,70.78
2023-05-16T21:23:34.714Z,70.82
2023-05-16T21:26:11.438Z,70.85
2023-05-16T21:29:02.056Z,71.01
2023-05-16T21:31:52.611Z,71.04
2023-05-16T21:34:23.224Z,71.13
2023-05-16T21:36:54.328Z,71.13
2023-05-16T21:39:26.639Z,71.16
2023-05-16T21:41:56.937Z,71.36
2023-05-16T21:44:32.480Z,71.37
2023-05-16T21:47:02.931Z,71.54
2023-05-16T21:49:52.988Z,71.64
2023-05-16T21:52:23.558Z,71.91
2023-05-16T21:54:56.592Z,72.10
2023-05-16T21:57:30.437Z,72.16
2023-05-16T22:00:09.997Z,72.16
2023-05-16T22:02:45.687Z,72.13
2023-05-16T22:05:24.596Z,72.18
2023-05-16T22:07:54.784Z,72.14
2023-05-16T22:10:25.529Z,72.09
2023-05-16T22:12:55.961Z,72.19
2023-05-16T22:15:36.864Z,72.24
2023-05-16T22:18:24.522Z,72.34
2023-05-16T22:20:55.944Z,72.21
2023-05-16T22:23:26.231Z,72.48
2023-05-16T22:26:03.716Z,72.52
2023-05-16T22:28:34.734Z,72.48
2023-05-16T22:31:04.926Z,72.29
2023-05-16T22:33:37.810Z,72.08
2023-05-16T22:36:08.142Z,72.01
2023-05-16T22:38:38.554Z,71.93
2023-05-16T22:41:13.011Z,72.19
2023-05-16T22:43:45.957Z,71.97
2023-05-16T22:46:19.326Z,71.90
2023-05-16T22:48:49.770Z,72.13
2023-05-16T22:51:24.206Z,72.30
2023-05-16T22:53:55.139Z,72.26
2023-05-16T22:56:36.496Z,72.35
2023-05-16T22:59:11.910Z,72.37
2023-05-16T23:01:44.010Z,72.51
2023-05-16T23:04:14.515Z,72.32
2023-05-16T23:06:49.796Z,72.35
2023-05-16T23:09:31.384Z,72.32
2023-05-16T23:12:02.332Z,72.31
2023-05-16T23:14:32.435Z,72.34
2023-05-16T23:17:05.939Z,72.47
2023-05-16T23:19:39.411Z,72.60
2023-05-16T23:22:09.901Z,72.55
2023-05-16T23:24:43.024Z,72.54
2023-05-16T23:27:17.357Z,72.48
2023-05-16T23:29:49.748Z,72.64
2023-05-16T23:32:21.546Z,72.59
2023-05-16T23:34:52.142Z,72.89
2023-05-16T23:37:24.875Z,72.84
2023-05-16T23:39:57.851Z,72.74
2023-05-16T23:42:30.699Z,72.66
2023-05-16T23:45:08.693Z,72.85
2023-05-16T23:47:42.552Z,72.84
2023-05-16T23:50:21.609Z,72.87
2023-05-16T23:52:52.058Z,73.10
2023-05-16T23:55:22.440Z,73.09
2023-05-16T23:57:53.227Z,73.05
